ADDS METAR Data INFO
IDs: Format: Raw Decoded Include TAF

Data at: 0023 UTC 17 Dec 2017

KMLU 162353Z 00000KT 10SM OVC100 17/03 A3016 RMK AO2 SLP212 T01670028 10272 20139 56003
KMLU 162253Z 00000KT 10SM OVC100 17/01 A3016 RMK AO2 SLP213 T01720006
KMLU 162153Z 18006KT 10SM BKN100 25/M01 A3016 RMK AO2 SLP212 T02501006
KMLU 162053Z COR VRB04KT 10SM CLR 14/M01 A3017 RMK AO2 SLP215 T02441006 56025
KMLU 161953Z 16006KT 10SM FEW100 24/00 A3019 RMK AO2 SLP222 T02440000
KMLU 161853Z 17006KT 10SM CLR 26/01 A3021 RMK AO2 SLP229 T02560006
KMLU 161753Z 16006KT 10SM CLR 24/00 A3024 RMK AO2 SLP240 I6000 T02440000 10267 21022 58020
KMLU 161653Z 17007KT 10SM CLR 24/01 A3027 RMK AO2 SLP250 T02390006
KMLU 161553Z 20005KT 10SM CLR 21/01 A3029 RMK AO2 SLP258 T02110011
KMLU 161453Z VRB04KT 10SM CLR 12/01 A3030 RMK AO2 SLP260 I3000 T01220006 53009
KMLU 161353Z 00000KT 10SM CLR 00/M03 A3029 RMK AO2 SLP257 T00001028
KMLU 161253Z 00000KT 10SM CLR M01/M03 A3027 RMK AO2 SLP252 I1000 T10111033
KMLU 161153Z AUTO 00000KT 10SM CLR M02/M03 A3027 RMK AO2 SLP252 I1000 I6000 T10221033 10061 21028 53002
KMLU 161053Z AUTO 00000KT 10SM CLR M02/M03 A3026 RMK AO2 SLP247 I1000 T10221028
KMLU 160953Z AUTO 00000KT 10SM CLR M02/M03 A3026 RMK AO2 SLP247 I1000 T10171028
KMLU 160853Z AUTO 00000KT 10SM CLR M01/M02 A3027 RMK AO2 SLP250 T10111022 56003
KMLU 160753Z AUTO 18003KT 10SM CLR M02/M03 A3027 RMK AO2 SLP250 T10171028
KMLU 160653Z AUTO 17004KT 10SM CLR 00/M02 A3026 RMK AO2 SLP248 T00001022
KMLU 160553Z AUTO 17004KT 10SM CLR 05/M02 A3028 RMK AO2 SLP252 T00501017 10050 21011 401001011 50002
KMLU 160453Z AUTO 00000KT 10SM CLR M01/M02 A3028 RMK AO2 SLP255 T10061022
KMLU 160353Z 00000KT 10SM CLR 01/M02 A3028 RMK AO2 SLP253 T00061022
KMLU 160253Z 00000KT 10SM CLR 01/M02 A3027 RMK AO2 SLP252 T00061017 53003
KMLU 160153Z 00000KT 10SM CLR 02/M01 A3027 RMK AO2 SLP250 T00221011
KMLU 160053Z 00000KT 10SM CLR 04/M01 A3027 RMK AO2 SLP249 T00391006
KMLU 152353Z 00000KT 10SM CLR 05/M01 A3026 RMK AO2 SLP248 T00501006 10100 20050 53005
KMLU 152253Z 00000KT 10SM CLR 08/M01 A3024 RMK AO2 SLP240 T00831006
KMLU 152153Z 00000KT 10SM CLR 09/M03 A3024 RMK AO2 SLP240 T00891028
KMLU 152053Z AUTO VRB05KT 10SM CLR 09/M03 A3025 RMK AO2 SLP242 T00941028 56019
KMLU 151953Z 15004KT 10SM CLR 09/M03 A3025 RMK AO2 SLP243 T00891033
KMLU 151853Z 07006KT 10SM CLR 09/M03 A3027 RMK AO2 SLP251 T00891033
KMLU 151753Z VRB04KT 10SM CLR 08/M02 A3030 RMK AO2 SLP261 T00831022 10083 20028 50002
KMLU 151653Z 02004KT 10SM CLR 08/M03 A3032 RMK AO2 SLP268 T00781028
KMLU 151553Z 01005KT 10SM CLR 06/M02 A3032 RMK AO2 SLP267 T00611017
KMLU 151453Z 34004KT 10SM CLR 04/M01 A3030 RMK AO2 PRESRR SLP259 T00441011 53023
KMLU 151353Z 36004KT 10SM CLR 03/M02 A3025 RMK AO2 SLP241 T00331017
KMLU 151253Z 01006KT 10SM CLR 03/M02 A3023 RMK AO2 SLP237 T00281017